createdAt,value
2022-10-20T00:00:41.059Z,56.99
2022-10-20T00:04:41.171Z,57.12
2022-10-20T00:08:41.903Z,57.58
2022-10-20T00:12:44.632Z,57.80
2022-10-20T00:16:44.777Z,56.80
2022-10-20T00:20:45.130Z,56.85
2022-10-20T00:24:45.773Z,56.55
2022-10-20T00:28:49.956Z,56.77
2022-10-20T00:32:50.892Z,56.45
2022-10-20T00:36:51.529Z,56.75
2022-10-20T00:40:51.701Z,57.00
2022-10-20T00:44:58.569Z,57.33
2022-10-20T00:49:04.301Z,57.93
2022-10-20T00:53:05.504Z,58.41
2022-10-20T00:57:06.273Z,58.67
2022-10-20T01:01:09.461Z,57.79
2022-10-20T01:05:11.596Z,57.42
2022-10-20T01:09:14.230Z,57.59
2022-10-20T01:13:28.188Z,56.42
2022-10-20T01:17:46.529Z,57.37
2022-10-20T01:22:20.616Z,56.83
2022-10-20T01:26:57.536Z,56.48
2022-10-20T01:31:04.810Z,56.14
2022-10-20T01:35:12.910Z,56.35
2022-10-20T01:39:21.918Z,56.73
2022-10-20T01:43:26.512Z,56.82
2022-10-20T01:47:33.093Z,56.88
2022-10-20T01:51:34.375Z,56.66
2022-10-20T01:55:35.095Z,56.69
2022-10-20T01:59:51.716Z,57.61
2022-10-20T02:03:59.327Z,56.97
2022-10-20T02:08:15.714Z,57.33
2022-10-20T02:12:22.220Z,57.00
2022-10-20T02:16:30.469Z,57.35
2022-10-20T02:20:34.948Z,57.43
2022-10-20T02:24:40.508Z,57.82
2022-10-20T02:28:45.998Z,57.97
2022-10-20T02:32:52.517Z,57.50
2022-10-20T02:37:00.725Z,57.76
2022-10-20T02:41:01.421Z,57.66
2022-10-20T02:45:01.470Z,57.86
2022-10-20T02:49:01.724Z,57.76
2022-10-20T02:53:04.556Z,57.75
2022-10-20T02:57:04.643Z,57.64
2022-10-20T03:01:04.925Z,57.63
2022-10-20T03:05:05.129Z,57.46
2022-10-20T03:09:08.328Z,57.39
2022-10-20T03:13:09.087Z,57.09
2022-10-20T03:17:09.132Z,57.37
2022-10-20T03:21:09.526Z,57.61
2022-10-20T03:25:12.569Z,57.18
2022-10-20T03:29:13.975Z,57.50
2022-10-20T03:33:14.036Z,57.56
2022-10-20T03:37:14.246Z,57.26
2022-10-20T03:41:17.074Z,56.84
2022-10-20T03:45:18.671Z,57.28
2022-10-20T03:49:19.077Z,57.11
2022-10-20T03:53:19.169Z,57.08
2022-10-20T03:57:22.579Z,57.38
2022-10-20T04:01:29.987Z,57.37
2022-10-20T04:05:30.162Z,57.08
2022-10-20T04:09:30.217Z,57.59
2022-10-20T04:13:32.950Z,57.70
2022-10-20T04:17:33.094Z,57.73
2022-10-20T04:21:33.333Z,57.72
2022-10-20T04:25:33.462Z,57.66
2022-10-20T04:29:36.269Z,57.83
2022-10-20T04:33:37.341Z,57.71
2022-10-20T04:37:37.759Z,58.12
2022-10-20T04:41:38.464Z,57.36
2022-10-20T04:45:41.251Z,57.85
2022-10-20T04:49:42.888Z,57.94
2022-10-20T04:53:43.568Z,58.37
2022-10-20T04:57:43.652Z,58.60
2022-10-20T05:01:46.399Z,59.13
2022-10-20T05:05:46.537Z,58.56
2022-10-20T05:09:46.596Z,58.18
2022-10-20T05:13:47.065Z,58.01
2022-10-20T05:17:49.967Z,58.71
2022-10-20T05:21:50.281Z,59.96
2022-10-20T05:25:50.569Z,60.89
2022-10-20T05:29:50.636Z,59.71
2022-10-20T05:33:56.562Z,59.15
2022-10-20T05:37:56.669Z,59.08
2022-10-20T05:41:56.701Z,58.98
2022-10-20T05:45:57.616Z,58.86
2022-10-20T05:50:00.528Z,58.10
2022-10-20T05:54:02.284Z,57.75
2022-10-20T05:58:02.400Z,57.74
2022-10-20T06:02:02.507Z,57.88
2022-10-20T06:06:06.454Z,57.97
2022-10-20T06:10:08.121Z,58.45
2022-10-20T06:14:08.274Z,58.44
2022-10-20T06:18:08.760Z,58.42
2022-10-20T06:22:11.574Z,58.61
2022-10-20T06:26:17.483Z,59.07
2022-10-20T06:30:17.746Z,58.87
2022-10-20T06:34:27.947Z,58.96
2022-10-20T06:38:40.332Z,57.68
2022-10-20T06:47:16.312Z,58.09
2022-10-20T06:51:25.110Z,58.04
2022-10-20T06:55:40.449Z,56.75
2022-10-20T06:59:50.785Z,55.83
2022-10-20T07:03:53.263Z,55.99
2022-10-20T07:07:56.095Z,55.72
2022-10-20T07:11:58.802Z,55.01
2022-10-20T07:16:00.044Z,55.86
2022-10-20T07:20:00.270Z,55.19
2022-10-20T07:24:03.481Z,54.68
2022-10-20T07:28:06.404Z,54.25
2022-10-20T07:32:07.067Z,53.55
2022-10-20T07:36:16.237Z,52.28
2022-10-20T07:40:16.542Z,51.29
2022-10-20T07:44:20.187Z,50.88
2022-10-20T07:48:20.278Z,51.16
2022-10-20T07:52:20.522Z,50.21
2022-10-20T07:56:20.944Z,50.43
2022-10-20T08:00:24.059Z,49.35
2022-10-20T08:04:24.176Z,49.97
2022-10-20T08:08:24.344Z,49.83
2022-10-20T08:12:24.410Z,48.48
2022-10-20T08:16:30.030Z,47.65
2022-10-20T08:20:33.072Z,47.54
2022-10-20T08:24:33.994Z,47.24
2022-10-20T08:28:34.093Z,47.14
2022-10-20T08:32:37.244Z,46.85
2022-10-20T08:36:37.578Z,46.37
2022-10-20T08:40:43.937Z,45.65
2022-10-20T08:44:48.760Z,45.44
2022-10-20T08:48:52.957Z,45.11
2022-10-20T08:52:59.040Z,45.67
2022-10-20T08:56:59.315Z,44.39
2022-10-20T09:01:02.663Z,43.55
2022-10-20T09:05:09.356Z,43.42
2022-10-20T09:09:10.214Z,42.38
2022-10-20T09:13:23.818Z,42.94
2022-10-20T09:17:24.001Z,42.80
2022-10-20T09:21:27.654Z,42.82
2022-10-20T09:25:29.906Z,41.89
2022-10-20T09:29:40.901Z,42.22
2022-10-20T09:33:42.193Z,40.83
2022-10-20T09:37:47.221Z,41.32
2022-10-20T09:41:47.543Z,41.17
2022-10-20T09:45:57.298Z,40.80
2022-10-20T09:50:02.743Z,39.61
2022-10-20T09:54:09.450Z,38.84
2022-10-20T09:58:17.830Z,39.01
2022-10-20T10:02:35.743Z,37.28
2022-10-20T10:06:46.305Z,36.45
2022-10-20T10:11:05.998Z,35.78
2022-10-20T10:15:30.574Z,35.68
2022-10-20T10:25:21.570Z,34.55
2022-10-20T10:29:52.522Z,34.61
2022-10-20T10:35:17.433Z,36.72
2022-10-20T10:39:43.837Z,36.55
2022-10-20T10:44:16.781Z,36.20
2022-10-20T10:49:43.271Z,35.21
2022-10-20T10:54:19.940Z,35.63
2022-10-20T11:04:25.232Z,34.51
2022-10-20T11:08:58.956Z,33.76
2022-10-20T11:13:23.062Z,33.25
2022-10-20T11:17:45.515Z,34.37
2022-10-20T11:22:07.631Z,33.87
2022-10-20T11:26:28.238Z,32.67
2022-10-20T11:30:30.243Z,32.02
2022-10-20T11:34:39.153Z,31.76
2022-10-20T11:38:49.798Z,31.32
2022-10-20T11:43:01.786Z,31.86
2022-10-20T11:47:08.955Z,31.06
2022-10-20T11:51:38.872Z,29.55
2022-10-20T11:55:58.464Z,29.75
2022-10-20T12:00:29.613Z,32.12
2022-10-20T12:05:23.034Z,31.28
2022-10-20T12:09:55.424Z,31.87
2022-10-20T12:14:10.677Z,32.23
2022-10-20T12:18:27.153Z,31.65
2022-10-20T12:22:45.383Z,32.39
2022-10-20T12:27:21.278Z,33.24
2022-10-20T12:31:25.710Z,33.00
2022-10-20T12:36:17.742Z,33.01
2022-10-20T12:40:31.147Z,31.97
2022-10-20T12:44:35.104Z,29.86
2022-10-20T12:48:46.131Z,29.83
2022-10-20T12:52:47.023Z,30.57
2022-10-20T12:56:48.053Z,30.77
2022-10-20T13:01:11.032Z,30.24
2022-10-20T13:05:47.592Z,30.74
2022-10-20T13:10:01.711Z,31.12
2022-10-20T13:14:24.917Z,32.11
2022-10-20T13:18:31.437Z,32.37
2022-10-20T13:22:49.314Z,32.01
2022-10-20T13:26:56.318Z,32.29
2022-10-20T13:31:20.708Z,32.00
2022-10-20T13:35:29.757Z,32.07
2022-10-20T13:39:49.666Z,32.06
2022-10-20T13:44:04.851Z,30.44
2022-10-20T13:48:29.394Z,30.74
2022-10-20T13:52:35.075Z,30.36
2022-10-20T13:56:45.125Z,30.50
2022-10-20T14:01:02.242Z,30.38
2022-10-20T14:05:09.083Z,30.88
2022-10-20T14:09:18.424Z,32.51
2022-10-20T14:13:24.665Z,32.98
2022-10-20T14:17:27.248Z,33.41
2022-10-20T14:21:28.807Z,33.41
2022-10-20T14:25:31.560Z,34.76
2022-10-20T14:29:39.404Z,35.59
2022-10-20T14:33:46.245Z,35.59
2022-10-20T14:37:55.426Z,36.19
2022-10-20T14:41:59.965Z,36.38
2022-10-20T14:46:05.638Z,36.61
2022-10-20T14:50:08.142Z,36.59
2022-10-20T14:54:30.810Z,36.83
2022-10-20T14:58:41.617Z,37.17
2022-10-20T15:02:45.928Z,36.83
2022-10-20T15:06:46.986Z,37.37
2022-10-20T15:10:47.792Z,37.62
2022-10-20T15:14:51.781Z,38.65
2022-10-20T15:19:16.041Z,39.25
2022-10-20T15:23:18.781Z,38.67
2022-10-20T15:27:20.921Z,39.29
2022-10-20T15:31:25.706Z,39.47
2022-10-20T15:35:30.960Z,39.84
2022-10-20T15:39:31.038Z,40.46
2022-10-20T15:43:31.106Z,40.82
2022-10-20T15:47:31.285Z,40.76
2022-10-20T15:51:39.916Z,41.28
2022-10-20T15:55:45.249Z,41.62
2022-10-20T15:59:45.324Z,41.69
2022-10-20T16:03:45.987Z,41.93
2022-10-20T16:07:48.840Z,43.00
2022-10-20T16:11:49.118Z,43.63
2022-10-20T16:15:49.226Z,44.06
2022-10-20T16:19:49.404Z,43.81
2022-10-20T16:23:52.046Z,44.25
2022-10-20T16:27:52.158Z,44.98
2022-10-20T16:31:52.271Z,43.74
2022-10-20T16:35:52.338Z,43.46
2022-10-20T16:39:55.313Z,43.42
2022-10-20T16:43:58.855Z,43.73
2022-10-20T16:48:00.991Z,43.56
2022-10-20T16:52:01.790Z,43.54
2022-10-20T16:56:05.156Z,43.51
2022-10-20T17:00:05.692Z,44.07
2022-10-20T17:04:06.625Z,44.40
2022-10-20T17:08:07.337Z,44.27
2022-10-20T17:12:10.189Z,43.72
2022-10-20T17:16:13.559Z,44.29
2022-10-20T17:20:14.666Z,44.72
2022-10-20T17:24:16.062Z,44.27
2022-10-20T17:28:19.332Z,44.19
2022-10-20T17:32:19.496Z,44.69
2022-10-20T17:36:25.883Z,45.11
2022-10-20T17:40:26.322Z,44.74
2022-10-20T17:44:29.329Z,45.23
2022-10-20T17:48:29.814Z,45.10
2022-10-20T17:52:32.250Z,45.18
2022-10-20T17:56:40.128Z,45.38
2022-10-20T18:00:56.104Z,46.83
2022-10-20T18:04:57.562Z,47.25
2022-10-20T18:08:59.504Z,47.70
2022-10-20T18:13:00.007Z,48.00
2022-10-20T18:17:02.839Z,47.97
2022-10-20T18:21:03.551Z,48.26
2022-10-20T18:25:05.222Z,49.41
2022-10-20T18:29:07.596Z,49.74
2022-10-20T18:33:10.894Z,50.21
2022-10-20T18:37:15.444Z,50.06
2022-10-20T18:41:18.551Z,50.30
2022-10-20T18:45:21.363Z,50.38
2022-10-20T18:49:27.214Z,50.57
2022-10-20T18:53:28.483Z,50.38
2022-10-20T18:57:28.724Z,50.97
2022-10-20T19:01:31.617Z,50.97
2022-10-20T19:05:36.898Z,50.91
2022-10-20T19:09:37.429Z,50.64
2022-10-20T19:13:37.681Z,50.41
2022-10-20T19:17:37.927Z,49.72
2022-10-20T19:21:40.793Z,50.29
2022-10-20T19:25:41.617Z,49.90
2022-10-20T19:29:41.906Z,50.76
2022-10-20T19:33:42.249Z,50.17
2022-10-20T19:37:44.945Z,49.89
2022-10-20T19:41:45.488Z,49.78
2022-10-20T19:45:49.076Z,50.27
2022-10-20T19:49:50.028Z,49.79
2022-10-20T19:53:53.308Z,49.60
2022-10-20T19:57:53.629Z,49.72
2022-10-20T20:01:53.758Z,49.56
2022-10-20T20:06:01.118Z,49.87
2022-10-20T20:10:03.878Z,49.88
2022-10-20T20:14:07.201Z,49.10
2022-10-20T20:18:11.044Z,49.49
2022-10-20T20:22:13.877Z,49.60
2022-10-20T20:26:16.844Z,49.63
2022-10-20T20:30:17.151Z,50.01
2022-10-20T20:34:18.164Z,50.11
2022-10-20T20:38:18.210Z,49.44
2022-10-20T20:42:21.050Z,49.41
2022-10-20T20:46:23.984Z,49.11
2022-10-20T20:50:24.123Z,49.33
2022-10-20T20:54:26.229Z,49.99
2022-10-20T20:58:32.299Z,49.55
2022-10-20T21:02:32.368Z,49.93
2022-10-20T21:06:56.646Z,50.26
2022-10-20T21:10:54.290Z,50.81
2022-10-20T21:14:57.203Z,50.02
2022-10-20T21:19:00.280Z,50.88
2022-10-20T21:23:00.388Z,50.61
2022-10-20T21:27:00.559Z,50.78
2022-10-20T21:31:03.702Z,50.91
2022-10-20T21:35:03.801Z,50.33
2022-10-20T21:39:05.126Z,50.15
2022-10-20T21:43:08.905Z,50.40
2022-10-20T21:47:11.691Z,50.64
2022-10-20T21:51:15.198Z,51.05
2022-10-20T21:55:15.283Z,50.25
2022-10-20T21:59:21.590Z,50.72
2022-10-20T22:03:25.567Z,50.55
2022-10-20T22:07:26.171Z,50.94
2022-10-20T22:11:30.021Z,51.06
2022-10-20T22:15:30.161Z,50.61
2022-10-20T22:19:32.911Z,49.58
2022-10-20T22:23:33.154Z,49.11
2022-10-20T22:27:42.433Z,48.95
2022-10-20T22:31:46.076Z,49.48
2022-10-20T22:35:49.053Z,49.06
2022-10-20T22:39:49.101Z,49.76
2022-10-20T22:43:49.680Z,49.88
2022-10-20T22:47:49.823Z,50.82
2022-10-20T22:51:52.515Z,50.84
2022-10-20T22:55:53.362Z,51.20
2022-10-20T22:59:55.148Z,50.50
2022-10-20T23:03:55.597Z,50.48
2022-10-20T23:07:58.346Z,51.17
2022-10-20T23:11:58.756Z,50.89
2022-10-20T23:15:58.831Z,50.74
2022-10-20T23:19:58.969Z,51.33
2022-10-20T23:24:01.646Z,51.73
2022-10-20T23:28:01.699Z,52.20
2022-10-20T23:32:01.902Z,52.25
2022-10-20T23:36:02.062Z,51.98
2022-10-20T23:40:07.767Z,51.34
2022-10-20T23:44:08.227Z,51.43
2022-10-20T23:48:08.578Z,51.48
2022-10-20T23:52:08.923Z,52.83
2022-10-20T23:56:11.831Z,53.02
